createdAt,value
2023-02-27T00:00:00.274Z,-1
2023-02-27T00:02:04.011Z,-1.1
2023-02-27T00:04:07.823Z,-1
2023-02-27T00:08:17.908Z,-1.2
2023-02-27T00:10:21.583Z,-1.4
2023-02-27T00:12:27.888Z,-1.4
2023-02-27T00:18:41.576Z,-1.4
2023-02-27T00:22:49.090Z,-1.6
2023-02-27T00:29:02.770Z,-1.6
2023-02-27T00:34:13.211Z,-1.5
2023-02-27T00:36:16.968Z,-1.5
2023-02-27T00:38:20.714Z,-1.5
2023-02-27T00:40:26.976Z,-1.5
2023-02-27T00:42:30.715Z,-1.7
2023-02-27T00:44:34.468Z,-1.7
2023-02-27T00:46:40.799Z,-1.9
2023-02-27T00:48:44.488Z,-1.8
2023-02-27T00:50:48.218Z,-2
2023-02-27T00:52:54.541Z,-1.9
2023-02-27T00:54:58.250Z,-2
2023-02-27T00:57:02.002Z,-2.1
2023-02-27T00:59:08.277Z,-2
2023-02-27T01:01:12.115Z,-1.9
2023-02-27T01:05:22.044Z,-1.9
2023-02-27T01:07:25.787Z,-2.1
2023-02-27T01:09:29.549Z,-2
2023-02-27T01:13:39.585Z,-2.2
2023-02-27T01:25:00.047Z,-2
2023-02-27T01:27:06.327Z,-2.3
2023-02-27T01:29:10.119Z,-2.1
2023-02-27T01:31:13.980Z,-2.2
2023-02-27T01:35:23.825Z,-2
2023-02-27T01:37:27.538Z,-1.9
2023-02-27T01:43:41.234Z,-2
2023-02-27T01:45:47.537Z,-2.1
2023-02-27T01:47:51.248Z,-2.2
2023-02-27T01:52:01.251Z,-2.1
2023-02-27T02:00:18.664Z,-2
2023-02-27T02:02:22.424Z,-2.1
2023-02-27T02:04:28.700Z,-2
2023-02-27T02:06:32.461Z,-2.2
2023-02-27T02:08:36.190Z,-2.1
2023-02-27T02:10:42.467Z,-2.3
2023-02-27T02:14:49.843Z,-2.3
2023-02-27T02:16:56.187Z,-2.4
2023-02-27T02:18:59.811Z,-2.2
2023-02-27T02:21:04.001Z,-2.4
2023-02-27T02:23:09.728Z,-2.2
2023-02-27T02:25:13.459Z,-2.4
2023-02-27T02:27:17.203Z,-2.3
2023-02-27T02:29:23.444Z,-2.5
2023-02-27T02:31:27.638Z,-2.3
2023-02-27T02:33:30.929Z,-2.3
2023-02-27T02:35:37.179Z,-2.3
2023-02-27T02:37:40.921Z,-2.5
2023-02-27T02:39:44.631Z,-2.4
2023-02-27T02:43:54.558Z,-2.6
2023-02-27T02:50:08.178Z,-2.7
2023-02-27T02:52:11.940Z,-2.5
2023-02-27T02:54:23.991Z,-2.6
2023-02-27T02:56:27.740Z,-2.6
2023-02-27T02:58:31.484Z,-2.8
2023-02-27T03:00:37.742Z,-2.6
2023-02-27T03:02:41.352Z,-2.7
2023-02-27T03:04:45.249Z,-2.6
2023-02-27T03:06:51.324Z,-2.6
2023-02-27T03:08:54.982Z,-2.7
2023-02-27T03:10:58.733Z,-2.9
2023-02-27T03:13:05.018Z,-2.8
2023-02-27T03:15:08.709Z,-2.6
2023-02-27T03:17:12.419Z,-2.6
2023-02-27T03:19:18.707Z,-2.5
2023-02-27T03:21:22.436Z,-2.8
2023-02-27T03:23:30.175Z,-2.7
2023-02-27T03:29:39.880Z,-2.6
2023-02-27T03:31:46.220Z,-2.6
2023-02-27T03:33:49.773Z,-2.5
2023-02-27T03:35:53.508Z,-2.5
2023-02-27T03:40:03.510Z,-2.6
2023-02-27T03:42:07.202Z,-2.6
2023-02-27T03:46:17.300Z,-2.9
2023-02-27T03:48:20.976Z,-2.7
2023-02-27T03:50:27.251Z,-2.9
2023-02-27T03:52:30.972Z,-2.9
2023-02-27T03:54:34.743Z,-2.8
2023-02-27T03:56:41.013Z,-3
2023-02-27T04:02:54.808Z,-3
2023-02-27T04:11:12.104Z,-3.2
2023-02-27T04:13:15.832Z,-3.1
2023-02-27T04:15:22.114Z,-2.9
2023-02-27T04:23:39.529Z,-3.1
2023-02-27T04:25:43.236Z,-3.1
2023-02-27T04:27:49.479Z,-3.1
2023-02-27T04:29:53.216Z,-3.1
2023-02-27T04:31:57.157Z,-3.1
2023-02-27T04:34:03.279Z,-3.2
2023-02-27T04:38:10.576Z,-3.3
2023-02-27T04:40:16.800Z,-3.2
2023-02-27T04:42:20.549Z,-2.9
2023-02-27T04:44:24.270Z,-2.9
2023-02-27T04:46:30.536Z,-3
2023-02-27T04:50:38.006Z,-3.3
2023-02-27T04:52:44.263Z,-3.1
2023-02-27T04:54:47.970Z,-3.2
2023-02-27T05:03:11.253Z,-3.4
2023-02-27T05:05:14.959Z,-3.4
2023-02-27T05:09:24.962Z,-3.4
2023-02-27T05:11:28.973Z,-3.4
2023-02-27T05:13:32.424Z,-3.3
2023-02-27T05:15:38.720Z,-3.2
2023-02-27T05:17:42.386Z,-3.4
2023-02-27T05:19:46.039Z,-3.3
2023-02-27T05:21:52.240Z,-3.3
2023-02-27T05:23:55.849Z,-3.5
2023-02-27T05:25:59.522Z,-3.2
2023-02-27T05:28:05.759Z,-3.5
2023-02-27T05:30:09.502Z,-3.5
2023-02-27T05:37:17.293Z,-3.3
2023-02-27T05:39:21.020Z,-3.6
2023-02-27T05:45:34.841Z,-3.3
2023-02-27T05:47:38.411Z,-3.1
2023-02-27T05:49:44.590Z,-3.2
2023-02-27T05:51:48.323Z,-3.1
2023-02-27T05:53:52.049Z,-3.5
2023-02-27T05:58:02.060Z,-3.7
2023-02-27T06:00:05.792Z,-3.7
2023-02-27T06:04:15.769Z,-3.5
2023-02-27T06:10:29.493Z,-3.6
2023-02-27T06:12:33.204Z,-3.5
2023-02-27T06:14:39.471Z,-3.8
2023-02-27T06:16:43.267Z,-3.6
2023-02-27T06:18:46.813Z,-3.6
2023-02-27T06:25:00.497Z,-3.4
2023-02-27T06:27:06.756Z,-3.5
2023-02-27T06:31:14.250Z,-3.5
2023-02-27T06:33:20.463Z,-3.4
2023-02-27T06:35:24.186Z,-3.4
2023-02-27T06:37:27.864Z,-3.4
2023-02-27T06:39:34.042Z,-3.4
2023-02-27T06:41:37.735Z,-3.4
2023-02-27T06:43:41.390Z,-3.4
2023-02-27T06:47:51.358Z,-3.3
2023-02-27T06:49:55.070Z,-3.3
2023-02-27T06:54:05.063Z,-3.2
2023-02-27T07:02:22.410Z,-3.1
2023-02-27T07:04:32.630Z,-2.9
2023-02-27T07:07:34.985Z,-2.9
2023-02-27T07:08:36.108Z,-2.8
2023-02-27T07:10:42.333Z,-2.9
2023-02-27T07:14:49.794Z,-2.7
2023-02-27T07:16:56.000Z,-2.6
2023-02-27T07:18:59.644Z,-2.5
2023-02-27T07:21:03.370Z,-2.5
2023-02-27T07:23:09.632Z,-2.3
2023-02-27T07:25:13.356Z,-2.3
2023-02-27T07:29:23.343Z,-2
2023-02-27T07:35:37.122Z,-1.8
2023-02-27T07:39:44.503Z,-1.7
2023-02-27T07:43:54.496Z,-1.5
2023-02-27T07:45:58.188Z,-1.3
2023-02-27T07:48:04.611Z,0.9
2023-02-27T07:50:08.222Z,3.5
2023-02-27T07:58:25.696Z,6.9
2023-02-27T08:02:35.709Z,7.1
2023-02-27T08:04:39.371Z,6.7
2023-02-27T08:07:01.755Z,7.5
2023-02-27T08:09:05.360Z,7.6
2023-02-27T08:11:09.023Z,7.8
2023-02-27T08:13:17.936Z,8.5
2023-02-27T08:15:19.454Z,8.1
2023-02-27T08:17:23.182Z,8.6
2023-02-27T08:19:27.100Z,8.9
2023-02-27T08:25:37.987Z,10
2023-02-27T08:27:44.702Z,9.8
2023-02-27T08:34:04.491Z,10
2023-02-27T08:35:59.338Z,9.9
2023-02-27T08:38:02.986Z,9.1
2023-02-27T08:40:06.665Z,9.5
2023-02-27T08:42:13.343Z,10.4
2023-02-27T08:44:17.027Z,11.1
2023-02-27T08:46:20.651Z,12
2023-02-27T08:50:27.974Z,10.4
2023-02-27T08:52:31.597Z,10.4
2023-02-27T08:54:35.368Z,10.3
2023-02-27T08:56:41.929Z,10.4
2023-02-27T08:58:45.582Z,10.3
2023-02-27T09:00:49.280Z,10.8
2023-02-27T09:01:52.601Z,10.3
2023-02-27T09:03:56.245Z,10.3
2023-02-27T09:05:59.877Z,9.9
2023-02-27T09:08:03.834Z,9.9
2023-02-27T09:10:10.225Z,10
2023-02-27T09:12:13.877Z,9.7
2023-02-27T09:14:21.432Z,9.7
2023-02-27T09:18:24.786Z,10.2
2023-02-27T09:20:28.404Z,10.3
2023-02-27T09:22:32.061Z,9.5
2023-02-27T09:34:56.892Z,7.8
2023-02-27T09:37:00.542Z,7.2
2023-02-27T09:39:07.226Z,6.2
2023-02-27T09:41:10.882Z,5.9
2023-02-27T09:43:14.526Z,5.9
2023-02-27T09:45:18.141Z,6.1
2023-02-27T09:47:21.796Z,5.5
2023-02-27T09:49:25.377Z,5.6
2023-02-27T09:51:29.584Z,5.3
2023-02-27T09:53:35.766Z,5.7
2023-02-27T09:55:39.372Z,5.6
2023-02-27T09:57:43.049Z,5.5
2023-02-27T09:58:46.360Z,5.4
2023-02-27T10:00:50.007Z,5.5
2023-02-27T10:02:53.676Z,5.4
2023-02-27T10:07:03.967Z,5.2
2023-02-27T10:13:14.913Z,6
2023-02-27T10:15:18.531Z,5.8
2023-02-27T10:17:22.142Z,5.8
2023-02-27T10:19:25.812Z,5.6
2023-02-27T10:21:32.943Z,5.3
2023-02-27T10:23:36.137Z,5.2
2023-02-27T10:25:39.774Z,5.1
2023-02-27T10:27:43.443Z,5.3
2023-02-27T10:29:47.060Z,5.1
2023-02-27T10:31:50.709Z,5.3
2023-02-27T10:33:54.352Z,5.5
2023-02-27T10:38:04.630Z,5.8
2023-02-27T10:46:19.294Z,6.1
2023-02-27T10:50:29.517Z,6.8
2023-02-27T10:52:33.114Z,6.9
2023-02-27T10:54:36.744Z,7.1
2023-02-27T10:55:40.100Z,7.4
2023-02-27T10:57:43.723Z,7.6
2023-02-27T10:59:47.345Z,7.7
2023-02-27T11:01:50.982Z,7.1
2023-02-27T11:03:57.670Z,6.8
2023-02-27T11:06:01.283Z,6.9
2023-02-27T11:08:04.898Z,6.9
2023-02-27T11:10:08.523Z,7.2
2023-02-27T11:12:12.151Z,7.3
2023-02-27T11:14:15.743Z,7.5
2023-02-27T11:16:19.374Z,8
2023-02-27T11:18:26.002Z,8
2023-02-27T11:20:29.582Z,7.9
2023-02-27T11:22:33.175Z,8.2
2023-02-27T11:24:36.718Z,8.3
2023-02-27T11:30:47.502Z,7.8
2023-02-27T11:34:57.634Z,7.8
2023-02-27T11:37:01.183Z,7.8
2023-02-27T11:39:04.668Z,8.2
2023-02-27T11:41:08.269Z,8.6
2023-02-27T11:43:11.794Z,8.6
2023-02-27T11:45:15.337Z,8.6
2023-02-27T11:47:22.032Z,7.6
2023-02-27T11:49:25.496Z,7.9
2023-02-27T11:51:29.300Z,8.8
2023-02-27T11:53:52.930Z,9.1
2023-02-27T11:55:56.462Z,9.1
2023-02-27T11:57:59.997Z,10.2
2023-02-27T12:00:06.592Z,8.6
2023-02-27T12:02:10.120Z,8.5
2023-02-27T12:06:17.156Z,7.7
2023-02-27T12:10:24.214Z,7.1
2023-02-27T12:12:27.761Z,7
2023-02-27T12:14:34.403Z,7.1
2023-02-27T12:16:38.019Z,7
2023-02-27T12:18:41.509Z,6.9
2023-02-27T12:20:45.023Z,6.8
2023-02-27T12:22:48.626Z,6.7
2023-02-27T12:24:52.169Z,6.7
2023-02-27T12:31:06.023Z,6.7
2023-02-27T12:33:09.574Z,6.5
2023-02-27T12:35:13.178Z,6.9
2023-02-27T12:37:16.847Z,6.5
2023-02-27T12:39:20.400Z,6.4
2023-02-27T12:41:23.960Z,6.5
2023-02-27T12:43:30.642Z,9.1
2023-02-27T12:47:37.821Z,9
2023-02-27T12:48:41.159Z,8.2
2023-02-27T12:50:44.766Z,7.8
2023-02-27T12:52:48.359Z,7.3
2023-02-27T12:54:51.981Z,7.1
2023-02-27T13:01:05.913Z,6.7
2023-02-27T13:03:09.503Z,6.7
2023-02-27T13:07:16.730Z,6.6
2023-02-27T13:11:27.323Z,6.5
2023-02-27T13:17:37.918Z,6.3
2023-02-27T13:27:59.106Z,8.9
2023-02-27T13:30:02.851Z,9.9
2023-02-27T13:32:06.481Z,10.3
2023-02-27T13:34:10.058Z,9.2
2023-02-27T13:36:13.614Z,9
2023-02-27T13:38:17.192Z,8.7
2023-02-27T13:40:23.889Z,7.4
2023-02-27T13:42:27.536Z,7.1
2023-02-27T13:44:31.160Z,6.9
2023-02-27T13:45:34.548Z,6.9
2023-02-27T13:47:38.118Z,7.7
2023-02-27T13:53:53.529Z,8.9
2023-02-27T13:58:00.827Z,7.7
2023-02-27T14:04:11.702Z,7.6
2023-02-27T14:08:15.898Z,9.7
2023-02-27T14:12:23.424Z,9.5
2023-02-27T14:22:44.242Z,8.6
2023-02-27T14:26:51.558Z,7.1
2023-02-27T14:33:02.276Z,6.2
2023-02-27T14:35:05.899Z,6.1
2023-02-27T14:37:12.561Z,6.9
2023-02-27T14:42:23.157Z,11.5
2023-02-27T14:44:26.798Z,12.3
2023-02-27T14:46:30.483Z,12.9
2023-02-27T14:48:33.995Z,12.4
2023-02-27T14:50:40.716Z,12.7
2023-02-27T14:52:44.275Z,12.2
2023-02-27T14:54:47.904Z,12.3
2023-02-27T14:56:51.466Z,12.4
2023-02-27T14:59:03.776Z,11.2
2023-02-27T15:03:02.207Z,9.7
2023-02-27T15:05:08.881Z,10.1
2023-02-27T15:07:12.414Z,10.4
2023-02-27T15:09:16.062Z,9.6
2023-02-27T15:11:19.603Z,8.9
2023-02-27T15:13:23.164Z,8.6
2023-02-27T15:15:26.736Z,8.4
2023-02-27T15:17:30.316Z,7.8
2023-02-27T15:19:36.967Z,8
2023-02-27T15:23:44.144Z,7.8
2023-02-27T15:25:47.719Z,7.3
2023-02-27T15:27:51.316Z,7
2023-02-27T15:29:55.010Z,6.7
2023-02-27T15:34:05.163Z,6.4
2023-02-27T15:36:08.782Z,6.4
2023-02-27T15:38:12.406Z,6.2
2023-02-27T15:40:34.724Z,6.2
2023-02-27T15:44:41.960Z,6
2023-02-27T15:46:48.727Z,5.8
2023-02-27T15:48:52.241Z,6.2
2023-02-27T15:50:55.932Z,6.9
2023-02-27T15:52:59.534Z,6.7
2023-02-27T15:55:03.138Z,6.5
2023-02-27T15:57:06.771Z,6.9
2023-02-27T15:59:10.431Z,7
2023-02-27T16:01:17.118Z,7.5
2023-02-27T16:03:20.752Z,7.7
2023-02-27T16:05:24.410Z,8.4
2023-02-27T16:07:28.026Z,8.6
2023-02-27T16:09:31.665Z,7.3
2023-02-27T16:11:35.305Z,7.5
2023-02-27T16:15:45.620Z,7.9
2023-02-27T16:19:52.880Z,7.4
2023-02-27T16:21:56.598Z,6.4
2023-02-27T16:26:03.774Z,5.8
2023-02-27T16:28:07.488Z,6.2
2023-02-27T16:34:21.417Z,5.5
2023-02-27T16:35:24.818Z,5.4
2023-02-27T16:39:32.027Z,5.3
2023-02-27T16:41:35.726Z,5.2
2023-02-27T16:43:42.388Z,5.1
2023-02-27T16:47:49.704Z,5
2023-02-27T16:49:53.263Z,4.9
2023-02-27T16:56:04.213Z,4.6
2023-02-27T16:58:10.948Z,4.5
2023-02-27T17:00:14.567Z,4.4
2023-02-27T17:02:18.216Z,4.3
2023-02-27T17:04:25.824Z,4.2
2023-02-27T17:06:25.763Z,4
2023-02-27T17:08:29.218Z,3.9
2023-02-27T17:10:32.862Z,3.8
2023-02-27T17:14:43.242Z,3.8
2023-02-27T17:16:46.922Z,3.6
2023-02-27T17:18:50.540Z,3.6
2023-02-27T17:20:54.193Z,3.5
2023-02-27T17:22:57.903Z,3.5
2023-02-27T17:25:01.522Z,3.4
2023-02-27T17:27:08.194Z,3.2
2023-02-27T17:29:11.927Z,3.2
2023-02-27T17:31:15.542Z,3.1
2023-02-27T17:40:36.583Z,3.1
2023-02-27T17:42:40.259Z,3.1
2023-02-27T17:44:45.087Z,3.1
2023-02-27T17:46:47.614Z,3
2023-02-27T17:48:51.237Z,3
2023-02-27T17:50:54.896Z,2.9
2023-02-27T17:52:58.580Z,2.8
2023-02-27T17:55:05.298Z,2.7
2023-02-27T17:57:08.926Z,2.7
2023-02-27T18:01:16.295Z,2.6
2023-02-27T18:03:19.911Z,2.5
2023-02-27T18:05:23.542Z,2.4
2023-02-27T18:07:27.252Z,2.4
2023-02-27T18:09:33.974Z,2.2
2023-02-27T18:11:37.636Z,2.1
2023-02-27T18:13:41.294Z,2
2023-02-27T18:15:45.005Z,2.1
2023-02-27T18:17:48.653Z,2
2023-02-27T18:24:02.728Z,2.1
2023-02-27T18:26:07.168Z,2
2023-02-27T18:28:10.224Z,2
2023-02-27T18:29:13.611Z,1.9
2023-02-27T18:31:17.387Z,1.9
2023-02-27T18:33:20.985Z,1.8
2023-02-27T18:35:24.669Z,1.8
2023-02-27T18:37:31.352Z,1.7
2023-02-27T18:43:42.404Z,1.6
2023-02-27T18:49:53.380Z,1.6
2023-02-27T18:52:00.124Z,1.6
2023-02-27T18:54:03.734Z,1.7
2023-02-27T18:56:07.457Z,1.7
2023-02-27T18:58:11.201Z,1.7
2023-02-27T19:00:14.873Z,1.7
2023-02-27T19:02:18.632Z,1.7
2023-02-27T19:04:22.371Z,1.6
2023-02-27T19:10:36.503Z,1.4
2023-02-27T19:14:43.902Z,1.4
2023-02-27T19:16:47.613Z,1.4
2023-02-27T19:18:51.311Z,1.4
2023-02-27T19:20:58.156Z,1.3
2023-02-27T19:23:01.839Z,1.2
2023-02-27T19:25:05.475Z,1.2
2023-02-27T19:27:11.759Z,1.2
2023-02-27T19:35:29.313Z,0.9
2023-02-27T19:37:32.820Z,0.9
2023-02-27T19:39:44.833Z,0.8
2023-02-27T19:41:48.514Z,0.9
2023-02-27T19:43:52.277Z,0.7
2023-02-27T19:48:02.296Z,0.6
2023-02-27T19:50:06.052Z,0.7
2023-02-27T19:52:12.308Z,0.7
2023-02-27T19:54:16.068Z,0.6
2023-02-27T19:56:19.737Z,0.5
2023-02-27T19:58:25.985Z,0.4
2023-02-27T20:00:29.824Z,0.4
2023-02-27T20:02:33.428Z,0.3
2023-02-27T20:06:43.507Z,0.5
2023-02-27T20:15:00.933Z,0.6
2023-02-27T20:17:07.190Z,0.4
2023-02-27T20:19:10.884Z,0.3
2023-02-27T20:21:14.633Z,0.3
2023-02-27T20:23:20.918Z,0.3
2023-02-27T20:25:24.676Z,0.2
2023-02-27T20:27:28.433Z,0.4
2023-02-27T20:29:34.702Z,0.5
2023-02-27T20:31:38.593Z,0.4
2023-02-27T20:35:48.221Z,0.3
2023-02-27T20:37:51.951Z,0.1
2023-02-27T20:39:55.654Z,0.1
2023-02-27T20:42:01.954Z,0.1
2023-02-27T20:44:05.606Z,-0.2
2023-02-27T20:46:09.398Z,-0.1
2023-02-27T20:48:15.581Z,-0.2
2023-02-27T20:50:19.360Z,-0.2
2023-02-27T20:52:22.987Z,-0.3
2023-02-27T21:01:22.046Z,-0.3
2023-02-27T21:03:26.347Z,-0.3
2023-02-27T21:05:29.484Z,-0.3
2023-02-27T21:07:35.747Z,-0.3
2023-02-27T21:09:39.438Z,-0.2
2023-02-27T21:11:43.195Z,-0.2
2023-02-27T21:13:49.488Z,-0.2
2023-02-27T21:15:53.267Z,-0.3
2023-02-27T21:17:57.000Z,-0.4
2023-02-27T21:20:05.618Z,-0.5
2023-02-27T21:22:07.043Z,-0.6
2023-02-27T21:24:10.774Z,-0.6
2023-02-27T21:26:17.080Z,-0.6
2023-02-27T21:28:20.832Z,-0.5
2023-02-27T21:30:24.594Z,-0.5
2023-02-27T21:35:36.062Z,-0.6
2023-02-27T21:37:39.779Z,-0.7
2023-02-27T21:39:43.506Z,-0.6
2023-02-27T21:41:49.723Z,-0.7
2023-02-27T21:43:53.459Z,-0.9
2023-02-27T21:48:04.420Z,-0.6
2023-02-27T21:50:08.197Z,-0.7
2023-02-27T21:52:11.918Z,-0.7
2023-02-27T21:57:19.732Z,-0.7
2023-02-27T21:59:23.462Z,-0.7
2023-02-27T22:05:37.176Z,-1
2023-02-27T22:07:40.954Z,-1.1
2023-02-27T22:09:47.210Z,-1
2023-02-27T22:11:50.945Z,-1.2
2023-02-27T22:13:54.678Z,-1.2
2023-02-27T22:16:00.960Z,-1
2023-02-27T22:18:06.476Z,-1.1
2023-02-27T22:20:08.414Z,-1
2023-02-27T22:22:15.332Z,-1
2023-02-27T22:26:22.742Z,-1.3
2023-02-27T22:28:29.037Z,-1
2023-02-27T22:30:32.782Z,-1.1
2023-02-27T22:32:36.547Z,-1
2023-02-27T22:34:42.855Z,-1
2023-02-27T22:36:46.610Z,-1.2
2023-02-27T22:38:50.373Z,-1.2
2023-02-27T22:40:56.630Z,-1
2023-02-27T22:43:00.364Z,-0.9
2023-02-27T22:45:04.041Z,-0.9
2023-02-27T22:47:10.324Z,-1.1
2023-02-27T22:49:14.050Z,-1
2023-02-27T22:53:23.967Z,-0.7
2023-02-27T22:57:31.369Z,-0.8
2023-02-27T22:59:37.678Z,-0.6
2023-02-27T23:01:41.548Z,-0.5
2023-02-27T23:03:45.251Z,-0.6
2023-02-27T23:05:51.506Z,-0.7
2023-02-27T23:07:55.200Z,-0.8
2023-02-27T23:16:12.720Z,-0.7
2023-02-27T23:18:18.936Z,-0.7
2023-02-27T23:20:22.671Z,-0.6
2023-02-27T23:24:32.525Z,-0.5
2023-02-27T23:26:36.281Z,-0.4
2023-02-27T23:39:03.809Z,-0.2
2023-02-27T23:41:07.616Z,-0.1
2023-02-27T23:43:13.767Z,-0.1
2023-02-27T23:45:17.518Z,-0.3
2023-02-27T23:47:21.252Z,-0.3
2023-02-27T23:52:28.570Z,-0.2
2023-02-27T23:54:32.274Z,0
2023-02-27T23:56:36.043Z,0
2023-02-27T23:58:42.355Z,0
